Time;durP1;ratioP1;P1;durP2;ratioP2;P2;SDS_P1;SDS_P2;PMS_P1;PMS_P2;Temp;Humidity;BMP_temperature;BMP_pressure;BME280_temperature;BME280_humidity;BME280_pressure;Samples;Min_cycle;Max_cycle;Signal;HPM_P1;HPM_P2
2022/02/12 00:00:05;;;;;;;0.90;0.90;;;;;;;3.82;70.63;101210.34;103467;1276;108459;-65
2022/02/12 00:02:58;;;;;;;1.00;1.00;;;;;;;3.78;70.47;101219.25;103333;1276;138456;-65
2022/02/12 00:05:26;;;;;;;1.00;1.00;;;;;;;3.79;70.73;101228.75;103643;1277;95623;-66
2022/02/12 00:07:56;;;;;;;1.00;1.00;;;;;;;3.81;70.54;101240.54;103488;1276;110906;-64
2022/02/12 00:10:27;;;;;;;1.10;1.10;;;;;;;3.79;70.41;101251.41;103579;1275;138359;-65
2022/02/12 00:12:56;;;;;;;1.10;1.10;;;;;;;3.77;70.26;101250.66;103501;1276;108865;-66
2022/02/12 00:15:24;;;;;;;1.10;1.10;;;;;;;3.71;69.96;101253.02;103473;1276;138292;-65
2022/02/12 00:17:54;;;;;;;1.00;1.00;;;;;;;3.65;69.81;101256.97;103675;1275;95753;-63
2022/02/12 00:20:22;;;;;;;1.00;1.00;;;;;;;3.63;70.06;101267.64;103842;1276;109949;-66
2022/02/12 00:22:50;;;;;;;1.10;1.10;;;;;;;3.60;70.48;101270.58;103470;1276;137823;-64
2022/02/12 00:25:18;;;;;;;1.20;1.20;;;;;;;3.58;70.51;101281.95;103603;1276;108360;-63
2022/02/12 00:27:47;;;;;;;1.10;1.10;;;;;;;3.60;70.65;101290.08;103353;1276;138686;-65
2022/02/12 00:30:15;;;;;;;1.10;1.10;;;;;;;3.59;70.70;101301.13;103640;1276;95213;-65
2022/02/12 00:32:43;;;;;;;1.10;1.10;;;;;;;3.53;70.76;101313.48;103387;1276;138494;-64
2022/02/12 00:35:11;;;;;;;1.00;1.00;;;;;;;3.43;71.23;101321.56;103561;1276;99652;-64
2022/02/12 00:37:39;;;;;;;1.00;1.00;;;;;;;3.36;71.48;101326.36;103497;1276;107721;-65
2022/02/12 00:40:07;;;;;;;1.00;1.00;;;;;;;3.35;71.49;101334.23;103354;1276;138843;-67
2022/02/12 00:42:35;;;;;;;1.10;1.10;;;;;;;3.31;71.40;101341.54;103532;1276;95716;-62
2022/02/12 00:45:06;;;;;;;1.20;1.20;;;;;;;3.19;70.74;101351.85;103437;1276;138192;-64
2022/02/12 00:47:34;;;;;;;1.20;1.20;;;;;;;3.11;70.62;101347.66;103863;1276;99621;-65
2022/02/12 00:50:03;;;;;;;1.10;1.10;;;;;;;3.08;70.53;101352.14;103537;1274;108424;-65
2022/02/12 00:52:31;;;;;;;1.10;1.10;;;;;;;3.06;70.28;101355.61;103431;1276;138645;-66
2022/02/12 00:54:59;;;;;;;1.20;1.20;;;;;;;3.01;70.34;101359.39;103533;1276;98002;-66
2022/02/12 00:57:27;;;;;;;1.20;1.20;;;;;;;3.01;70.53;101362.72;103422;1276;138536;-64
2022/02/12 00:59:55;;;;;;;1.20;1.20;;;;;;;3.01;70.30;101364.48;103612;1276;99577;-64
2022/02/12 01:02:24;;;;;;;1.10;1.10;;;;;;;3.06;70.36;101369.13;103674;1276;107788;-64
2022/02/12 01:04:53;;;;;;;1.30;1.30;;;;;;;3.09;70.42;101376.22;103606;1276;138163;-65
2022/02/12 01:07:21;;;;;;;1.10;1.10;;;;;;;3.06;70.17;101383.51;103521;1276;95212;-65
2022/02/12 01:09:49;;;;;;;1.20;1.20;;;;;;;3.01;69.90;101393.08;103450;1276;138845;-65
2022/02/12 01:12:17;;;;;;;1.10;1.10;;;;;;;3.03;70.19;101398.20;103561;1276;98657;-64
2022/02/12 01:14:45;;;;;;;1.10;1.10;;;;;;;3.02;69.98;101399.94;103431;1276;138421;-64
2022/02/12 01:17:13;;;;;;;1.20;1.20;;;;;;;3.02;70.02;101403.27;103505;1276;95187;-64
2022/02/12 01:19:42;;;;;;;1.20;1.20;;;;;;;3.06;69.75;101400.88;103613;1276;95338;-63
2022/02/12 01:22:10;;;;;;;1.20;1.20;;;;;;;3.07;69.66;101403.90;103410;1276;138567;-67
2022/02/12 01:24:39;;;;;;;1.20;1.20;;;;;;;3.05;69.29;101412.09;103555;1276;98771;-65
2022/02/12 01:27:07;;;;;;;1.10;1.10;;;;;;;2.96;69.44;101417.01;103382;1276;138499;-65
2022/02/12 01:29:35;;;;;;;1.20;1.20;;;;;;;2.88;69.05;101420.34;103427;1273;96592;-65
2022/02/12 01:32:04;;;;;;;1.10;1.10;;;;;;;2.86;69.15;101425.91;103523;1276;95605;-65
2022/02/12 01:34:33;;;;;;;1.10;1.10;;;;;;;2.83;69.01;101432.86;103400;1276;137758;-66
2022/02/12 01:37:05;;;;;;;1.20;1.20;;;;;;;2.78;69.05;101438.88;103795;1275;99813;-65
2022/02/12 01:39:34;;;;;;;1.30;1.30;;;;;;;2.74;69.09;101445.98;103363;1276;138149;-65
2022/02/12 01:42:02;;;;;;;1.20;1.20;;;;;;;2.72;69.06;101456.09;103471;1276;95200;-65
2022/02/12 01:44:33;;;;;;;1.10;1.10;;;;;;;2.71;69.16;101460.45;103393;1276;138171;-64
2022/02/12 01:47:01;;;;;;;1.20;1.20;;;;;;;2.68;69.14;101459.19;103562;1276;109289;-65
2022/02/12 01:49:30;;;;;;;1.30;1.30;;;;;;;2.70;69.32;101460.63;103354;1277;99864;-63
2022/02/12 01:51:59;;;;;;;1.20;1.20;;;;;;;2.66;69.24;101466.33;105093;1276;139363;-64
2022/02/12 01:54:30;;;;;;;1.10;1.10;;;;;;;2.68;69.39;101472.68;103394;1276;95232;-64
2022/02/12 01:57:01;;;;;;;1.20;1.20;;;;;;;2.70;69.22;101473.94;103252;1276;137920;-64
2022/02/12 01:59:29;;;;;;;1.30;1.30;;;;;;;2.64;69.40;101491.35;103452;1276;109812;-63
2022/02/12 02:01:58;;;;;;;1.30;1.30;;;;;;;2.63;69.09;101495.19;103384;1276;99512;-63
2022/02/12 02:04:29;;;;;;;1.30;1.30;;;;;;;2.64;69.36;101498.70;103260;1276;139002;-63
2022/02/12 02:06:56;;;;;;;1.20;1.20;;;;;;;2.66;69.41;101499.45;103383;1276;95739;-64
2022/02/12 02:09:26;;;;;;;1.20;1.20;;;;;;;2.63;69.24;101500.45;103387;1276;138285;-64
2022/02/12 02:11:54;;;;;;;1.20;1.20;;;;;;;2.59;68.92;101508.21;103344;1276;108593;-64
2022/02/12 02:14:31;;;;;;;1.10;1.10;;;;;;;2.56;68.64;101513.08;103377;1276;99665;-63
2022/02/12 02:16:59;;;;;;;1.20;1.20;;;;;;;2.54;68.56;101520.03;103316;1276;142082;-66
2022/02/12 02:19:27;;;;;;;1.30;1.30;;;;;;;2.48;68.29;101527.09;103567;1275;95705;-65
2022/02/12 02:21:57;;;;;;;1.40;1.40;;;;;;;2.43;67.63;101532.73;103639;1276;138801;-65
2022/02/12 02:24:25;;;;;;;1.60;1.60;;;;;;;2.35;67.60;101538.49;103549;1276;108096;-65
2022/02/12 02:27:14;;;;;;;1.20;1.20;;;;;;;2.36;67.82;101541.66;103304;1276;138988;-65
2022/02/12 02:29:44;;;;;;;1.30;1.30;;;;;;;2.37;67.87;101549.41;103517;1276;108610;-66
2022/02/12 02:32:13;;;;;;;1.40;1.40;;;;;;;2.34;68.05;101555.13;103738;1276;95567;-65
2022/02/12 02:34:54;;;;;;;1.30;1.30;;;;;;;2.32;67.76;101560.48;103392;1276;138983;-65
2022/02/12 02:37:23;;;;;;;1.20;1.20;;;;;;;2.41;67.91;101569.11;103490;1276;109635;-66
2022/02/12 02:39:51;;;;;;;1.30;1.30;;;;;;;2.40;67.36;101571.91;103444;1276;138027;-66
2022/02/12 02:42:19;;;;;;;1.30;1.30;;;;;;;2.36;67.72;101581.11;103553;1276;108052;-65
2022/02/12 02:44:47;;;;;;;1.40;1.40;;;;;;;2.40;68.00;101589.61;103383;1276;139167;-64
2022/02/12 02:47:36;;;;;;;1.20;1.20;;;;;;;2.46;68.44;101592.40;103530;1276;95299;-65
2022/02/12 02:55:59;;;;;;;1.20;1.20;;;;;;;2.52;68.65;101596.42;103553;1276;109827;-65
2022/02/12 02:58:32;;;;;;;1.30;1.30;;;;;;;2.78;67.81;101618.13;103422;1276;139276;-65
2022/02/12 03:01:02;;;;;;;1.50;1.50;;;;;;;2.75;67.64;101622.25;103985;1276;95603;-66
2022/02/12 03:03:30;;;;;;;1.20;1.20;;;;;;;2.69;67.84;101625.80;103697;1276;137824;-64
2022/02/12 03:05:59;;;;;;;1.30;1.30;;;;;;;2.69;67.86;101627.19;103572;1276;100470;-65
2022/02/12 03:08:28;;;;;;;1.20;1.20;;;;;;;2.76;67.63;101635.25;103517;1276;109379;-65
2022/02/12 03:10:57;;;;;;;1.30;1.30;;;;;;;2.74;67.63;101641.69;103546;1276;138187;-65
2022/02/12 03:13:26;;;;;;;1.30;1.30;;;;;;;2.63;67.60;101648.42;103710;1276;95235;-63
2022/02/12 03:15:54;;;;;;;1.40;1.40;;;;;;;2.58;67.67;101655.11;103446;1276;138054;-63
2022/02/12 03:18:23;;;;;;;1.20;1.20;;;;;;;2.55;67.94;101656.80;103521;1276;98917;-66
2022/02/12 03:20:52;;;;;;;1.30;1.30;;;;;;;2.51;67.78;101661.27;103482;1276;138282;-65
2022/02/12 03:23:19;;;;;;;1.40;1.40;;;;;;;2.44;68.08;101670.00;103523;1276;95212;-65
2022/02/12 03:25:47;;;;;;;1.40;1.40;;;;;;;2.38;68.35;101675.79;103555;1276;95188;-65
2022/02/12 03:28:15;;;;;;;1.30;1.30;;;;;;;2.39;68.28;101680.02;103429;1276;138578;-65
2022/02/12 03:30:48;;;;;;;1.30;1.30;;;;;;;2.43;68.41;101681.20;103556;1276;99418;-66
2022/02/12 03:33:17;;;;;;;1.30;1.30;;;;;;;2.39;68.35;101685.46;103449;1276;137904;-62
2022/02/12 03:35:46;;;;;;;1.40;1.40;;;;;;;2.38;68.31;101692.45;103877;1275;95352;-63
2022/02/12 03:38:19;;;;;;;1.30;1.30;;;;;;;2.47;68.57;101699.55;103520;1276;95241;-63
2022/02/12 03:40:49;;;;;;;1.30;1.30;;;;;;;2.53;67.98;101707.76;103279;1276;265800;-64
2022/02/12 03:43:18;;;;;;;1.20;1.20;;;;;;;2.46;68.20;101708.09;103540;1276;99447;-64
2022/02/12 03:45:46;;;;;;;1.40;1.40;;;;;;;2.41;68.22;101713.39;103311;1276;137773;-65
2022/02/12 03:48:16;;;;;;;1.40;1.40;;;;;;;2.40;68.12;101719.49;103518;1276;95216;-65
2022/02/12 03:50:44;;;;;;;1.30;1.30;;;;;;;2.43;67.93;101724.83;103445;1276;138860;-65
2022/02/12 03:53:12;;;;;;;1.30;1.30;;;;;;;2.51;67.99;101726.64;103548;1276;109413;-64
2022/02/12 03:55:40;;;;;;;1.30;1.30;;;;;;;2.44;67.61;101728.56;103571;1276;99732;-65
2022/02/12 03:58:09;;;;;;;1.30;1.30;;;;;;;2.41;67.80;101727.59;103447;1276;138529;-65
2022/02/12 04:00:39;;;;;;;1.30;1.30;;;;;;;2.46;67.75;101726.49;103585;1278;95515;-64
2022/02/12 04:03:07;;;;;;;1.30;1.30;;;;;;;2.42;67.66;101731.30;103746;1276;137922;-65
2022/02/12 04:05:36;;;;;;;1.40;1.40;;;;;;;2.38;67.64;101730.14;103590;1276;110517;-65
2022/02/12 04:08:04;;;;;;;1.40;1.40;;;;;;;2.40;67.59;101739.81;103580;1276;99375;-65
2022/02/12 04:10:32;;;;;;;1.30;1.30;;;;;;;2.42;67.81;101740.77;103662;1276;138942;-66
2022/02/12 04:13:01;;;;;;;1.30;1.30;;;;;;;2.47;67.92;101745.30;103558;1276;95215;-64
2022/02/12 04:15:30;;;;;;;1.40;1.40;;;;;;;2.51;67.39;101753.29;103578;1276;138215;-64
2022/02/12 04:17:59;;;;;;;1.50;1.50;;;;;;;2.44;67.09;101757.30;103631;1276;109338;-64
2022/02/12 04:20:27;;;;;;;1.40;1.40;;;;;;;2.40;67.35;101759.64;103845;1276;98254;-66
2022/02/12 04:22:55;;;;;;;1.40;1.40;;;;;;;2.40;67.19;101769.81;103319;1276;139083;-64
2022/02/12 04:25:23;;;;;;;1.40;1.40;;;;;;;2.31;67.33;101778.11;103570;1276;95435;-65
2022/02/12 04:27:52;;;;;;;1.50;1.50;;;;;;;2.29;67.32;101786.29;103616;1276;138313;-65
2022/02/12 04:30:20;;;;;;;1.30;1.30;;;;;;;2.24;67.36;101794.58;103536;1276;109382;-64
2022/02/12 04:32:48;;;;;;;1.30;1.30;;;;;;;2.26;67.37;101793.40;103756;1276;138429;-66
2022/02/12 04:35:16;;;;;;;1.40;1.40;;;;;;;2.24;67.28;101793.84;103552;1276;107895;-65
2022/02/12 04:37:44;;;;;;;1.50;1.50;;;;;;;2.17;67.76;101795.06;103475;1276;95760;-65
2022/02/12 04:40:13;;;;;;;1.50;1.50;;;;;;;2.20;67.97;101801.61;103424;1276;139316;-65
2022/02/12 04:42:41;;;;;;;1.50;1.50;;;;;;;2.22;67.75;101809.05;103650;1276;109257;-65
2022/02/12 04:45:09;;;;;;;1.30;1.30;;;;;;;2.18;67.62;101812.61;103458;1276;138171;-65
2022/02/12 04:47:40;;;;;;;1.60;1.60;;;;;;;2.09;68.05;101812.70;103576;1276;108990;-66
2022/02/12 04:50:09;;;;;;;1.60;1.60;;;;;;;2.07;68.09;101811.73;103648;1276;95766;-65
2022/02/12 04:52:38;;;;;;;1.50;1.50;;;;;;;2.06;68.09;101805.40;103709;1276;138403;-63
2022/02/12 04:55:06;;;;;;;1.40;1.40;;;;;;;2.13;67.99;101808.08;103612;1276;109548;-65
2022/02/12 04:57:35;;;;;;;1.50;1.50;;;;;;;2.14;67.86;101811.80;103542;1276;137976;-64
2022/02/12 05:00:05;;;;;;;1.50;1.50;;;;;;;2.12;67.78;101811.55;103503;1276;108470;-64
2022/02/12 05:02:34;;;;;;;1.30;1.30;;;;;;;2.20;68.08;101808.11;103786;1276;95666;-66
2022/02/12 05:05:03;;;;;;;1.30;1.30;;;;;;;2.24;67.70;101812.95;103272;1276;137423;-63
2022/02/12 05:07:31;;;;;;;1.50;1.50;;;;;;;2.24;67.67;101811.02;103501;1277;109686;-65
2022/02/12 05:09:59;;;;;;;1.50;1.50;;;;;;;2.24;67.63;101811.74;103449;1276;138904;-66
2022/02/12 05:12:28;;;;;;;1.40;1.40;;;;;;;2.33;67.55;101816.92;103466;1276;108741;-66
2022/02/12 05:14:56;;;;;;;1.30;1.30;;;;;;;2.35;66.87;101820.48;103391;1276;138420;-62
2022/02/12 05:17:24;;;;;;;1.40;1.40;;;;;;;2.29;67.28;101825.21;103505;1276;95617;-65
2022/02/12 05:19:53;;;;;;;1.40;1.40;;;;;;;2.21;67.08;101829.00;103462;1276;109428;-66
2022/02/12 05:22:21;;;;;;;1.40;1.40;;;;;;;2.21;67.53;101837.24;103371;1276;139267;-65
2022/02/12 05:24:49;;;;;;;1.30;1.30;;;;;;;2.25;67.09;101842.95;103498;1276;108832;-66
2022/02/12 05:27:18;;;;;;;1.40;1.40;;;;;;;2.22;67.19;101849.17;103351;1276;138117;-66
2022/02/12 05:29:46;;;;;;;1.40;1.40;;;;;;;2.19;67.37;101854.15;103485;1276;95136;-65
2022/02/12 05:32:14;;;;;;;1.40;1.40;;;;;;;2.22;67.53;101858.80;103477;1276;110247;-65
2022/02/12 05:34:42;;;;;;;1.40;1.40;;;;;;;2.26;67.15;101863.50;103404;1276;138647;-64
2022/02/12 05:37:10;;;;;;;1.50;1.50;;;;;;;2.24;66.94;101869.22;103500;1276;107496;-65
2022/02/12 05:39:39;;;;;;;1.50;1.50;;;;;;;2.10;67.03;101877.70;103351;1276;138434;-65
2022/02/12 05:42:07;;;;;;;1.50;1.50;;;;;;;2.02;67.11;101876.76;103504;1276;95636;-67
2022/02/12 05:44:35;;;;;;;1.30;1.30;;;;;;;2.04;67.44;101879.61;103512;1276;109492;-66
2022/02/12 05:47:03;;;;;;;1.40;1.40;;;;;;;1.98;67.37;101885.39;103386;1276;137837;-66
2022/02/12 05:49:31;;;;;;;1.50;1.50;;;;;;;1.98;67.58;101888.34;103419;1276;108812;-65
2022/02/12 05:52:02;;;;;;;1.40;1.40;;;;;;;1.95;67.42;101886.86;103376;1276;138233;-66
2022/02/12 05:54:30;;;;;;;1.40;1.40;;;;;;;1.96;67.59;101894.08;104680;1276;95118;-65
2022/02/12 05:56:58;;;;;;;1.30;1.30;;;;;;;2.02;67.42;101902.52;103407;1276;136946;-65
2022/02/12 05:59:26;;;;;;;1.50;1.50;;;;;;;1.99;67.13;101907.66;103566;1276;99926;-65
2022/02/12 06:01:55;;;;;;;1.40;1.40;;;;;;;1.91;67.51;101911.77;103470;1276;109356;-66
2022/02/12 06:04:23;;;;;;;1.40;1.40;;;;;;;1.97;67.97;101913.39;103320;1276;138247;-65
2022/02/12 06:06:51;;;;;;;1.40;1.40;;;;;;;2.02;67.53;101919.86;103475;1276;95834;-64
2022/02/12 06:09:19;;;;;;;1.30;1.30;;;;;;;1.98;67.61;101922.52;103429;1276;137897;-66
2022/02/12 06:11:47;;;;;;;1.40;1.40;;;;;;;2.00;67.47;101918.90;103468;1276;99466;-66
2022/02/12 06:14:15;;;;;;;1.30;1.30;;;;;;;1.96;67.13;101923.15;103515;1276;108861;-65
2022/02/12 06:16:42;;;;;;;1.40;1.40;;;;;;;1.99;67.37;101920.98;103378;1276;138257;-65
2022/02/12 06:19:11;;;;;;;1.60;1.60;;;;;;;1.95;67.16;101921.19;103350;1276;95722;-62
2022/02/12 06:21:38;;;;;;;1.60;1.60;;;;;;;1.88;67.76;101922.52;103388;1276;138763;-65
2022/02/12 06:24:06;;;;;;;1.40;1.40;;;;;;;1.88;67.79;101923.07;103465;1275;99415;-66
2022/02/12 06:26:38;;;;;;;1.40;1.40;;;;;;;1.90;67.87;101927.31;103522;1276;108815;-67
2022/02/12 06:29:06;;;;;;;1.40;1.40;;;;;;;1.95;67.54;101923.79;103405;1276;138283;-65
2022/02/12 06:31:34;;;;;;;1.30;1.30;;;;;;;1.99;67.81;101929.73;103475;1276;95211;-67
2022/02/12 06:34:02;;;;;;;1.30;1.30;;;;;;;2.04;67.47;101933.73;103359;1276;138948;-65
2022/02/12 06:36:29;;;;;;;1.30;1.30;;;;;;;2.05;67.14;101934.66;103420;1276;99410;-66
2022/02/12 06:39:00;;;;;;;1.30;1.30;;;;;;;2.00;66.96;101934.84;103452;1277;138036;-65
2022/02/12 06:41:28;;;;;;;1.40;1.40;;;;;;;1.92;67.22;101934.23;103502;1276;95743;-63
2022/02/12 06:43:56;;;;;;;1.40;1.40;;;;;;;1.94;67.64;101943.06;103504;1277;96932;-65
2022/02/12 06:46:24;;;;;;;1.30;1.30;;;;;;;1.97;67.19;101940.00;103540;1276;138465;-66
2022/02/12 06:48:52;;;;;;;1.50;1.50;;;;;;;1.96;67.03;101944.69;103529;1276;99248;-66
2022/02/12 06:51:20;;;;;;;1.50;1.50;;;;;;;1.96;67.17;101944.53;103387;1276;138625;-64
2022/02/12 06:53:48;;;;;;;1.60;1.60;;;;;;;1.94;67.16;101944.63;103502;1277;95255;-66
2022/02/12 06:56:15;;;;;;;1.30;1.30;;;;;;;2.01;67.38;101948.19;103442;1276;95740;-66
2022/02/12 06:58:43;;;;;;;1.30;1.30;;;;;;;2.09;67.26;101951.95;103384;1277;138733;-66
2022/02/12 07:01:11;;;;;;;1.40;1.40;;;;;;;2.12;66.91;101959.77;103526;1277;98185;-64
2022/02/12 07:03:39;;;;;;;1.40;1.40;;;;;;;2.09;66.84;101971.05;103373;1276;138625;-63
2022/02/12 07:06:07;;;;;;;1.50;1.50;;;;;;;2.04;67.00;101977.55;103524;1276;95754;-67
2022/02/12 07:08:35;;;;;;;1.30;1.30;;;;;;;2.01;67.08;101979.03;103523;1277;95549;-65
2022/02/12 07:11:03;;;;;;;1.50;1.50;;;;;;;2.02;67.41;101980.81;103583;1278;137922;-65
2022/02/12 07:13:31;;;;;;;1.50;1.50;;;;;;;2.03;66.95;101982.75;103511;1276;99783;-65
2022/02/12 07:16:01;;;;;;;1.60;1.60;;;;;;;1.97;66.99;101987.30;103334;1278;138348;-65
2022/02/12 07:18:29;;;;;;;1.40;1.40;;;;;;;1.95;67.17;101993.54;103472;1276;95279;-66
2022/02/12 07:20:57;;;;;;;1.40;1.40;;;;;;;1.95;67.07;101995.45;103379;1277;138729;-70
2022/02/12 07:23:25;;;;;;;1.50;1.50;;;;;;;1.95;67.54;102002.11;103515;1276;109733;-65
2022/02/12 07:25:53;;;;;;;1.50;1.50;;;;;;;1.98;67.44;102006.95;103482;1278;98718;-65
2022/02/12 07:28:21;;;;;;;1.30;1.30;;;;;;;1.99;67.22;102011.54;103403;1277;138837;-65
2022/02/12 07:30:49;;;;;;;1.20;1.20;;;;;;;2.00;67.19;102014.19;103523;1276;95604;-67
2022/02/12 07:33:17;;;;;;;1.50;1.50;;;;;;;1.97;67.24;102026.02;103452;1277;137846;-66
2022/02/12 07:35:45;;;;;;;1.50;1.50;;;;;;;2.03;67.89;102030.07;103536;1276;109851;-64
2022/02/12 07:38:12;;;;;;;1.40;1.40;;;;;;;2.13;67.56;102027.95;103561;1278;99582;-65
2022/02/12 07:40:40;;;;;;;1.40;1.40;;;;;;;2.27;67.22;102035.27;103377;1277;140414;-65
2022/02/12 07:43:08;;;;;;;1.40;1.40;;;;;;;2.50;66.94;102039.56;103556;1276;96475;-66
2022/02/12 07:45:37;;;;;;;1.20;1.20;;;;;;;2.57;65.82;102041.71;103423;1277;137731;-66
2022/02/12 07:48:05;;;;;;;1.40;1.40;;;;;;;2.67;66.32;102047.12;103476;1277;109048;-66
2022/02/12 07:50:33;;;;;;;1.30;1.30;;;;;;;2.83;65.59;102045.02;103557;1277;99281;-65
2022/02/12 07:53:01;;;;;;;1.30;1.30;;;;;;;2.93;65.54;102053.04;103440;1277;138385;-66
2022/02/12 07:55:30;;;;;;;1.30;1.30;;;;;;;2.95;65.01;102060.29;103488;1276;95736;-66
2022/02/12 07:57:58;;;;;;;1.30;1.30;;;;;;;3.23;64.36;102061.01;103433;1277;137947;-65
2022/02/12 08:00:26;;;;;;;1.30;1.30;;;;;;;3.27;64.31;102067.09;103497;1277;110008;-65
2022/02/12 08:02:56;;;;;;;1.20;1.20;;;;;;;3.28;64.37;102070.45;103401;1276;138957;-68
2022/02/12 08:05:24;;;;;;;1.40;1.40;;;;;;;3.46;64.50;102075.56;103800;1278;108817;-66
2022/02/12 08:07:52;;;;;;;1.10;1.10;;;;;;;3.60;64.06;102078.94;103517;1276;95235;-64
2022/02/12 08:13:06;;;;;;;1.20;1.20;;;;;;;3.29;63.97;102077.16;103488;1277;109741;-64
2022/02/12 08:15:36;;;;;;;1.20;1.20;;;;;;;3.21;64.04;102075.88;103429;1276;138776;-66
2022/02/12 08:18:04;;;;;;;1.20;1.20;;;;;;;3.12;63.94;102077.69;103457;1277;109043;-64
2022/02/12 08:20:32;;;;;;;1.20;1.20;;;;;;;3.02;64.14;102085.62;103495;1278;95645;-65
2022/02/12 08:23:00;;;;;;;1.20;1.20;;;;;;;2.97;64.26;102086.85;103432;1276;138649;-64
2022/02/12 08:25:28;;;;;;;1.30;1.30;;;;;;;2.94;64.40;102090.44;103506;1276;109259;-65
2022/02/12 08:27:56;;;;;;;1.20;1.20;;;;;;;2.98;64.29;102095.84;103404;1275;138300;-66
2022/02/12 08:30:24;;;;;;;1.20;1.20;;;;;;;3.06;64.67;102097.30;103558;1278;108807;-65
2022/02/12 08:32:51;;;;;;;1.30;1.30;;;;;;;3.16;64.56;102102.52;103378;1277;139045;-65
2022/02/12 08:35:40;;;;;;;1.20;1.20;;;;;;;3.16;64.67;102106.25;103495;1278;95792;-67
2022/02/12 08:38:08;;;;;;;1.10;1.10;;;;;;;3.16;64.59;102109.59;103506;1277;109786;-65
2022/02/12 08:40:36;;;;;;;1.20;1.20;;;;;;;3.19;64.65;102112.82;103311;1276;137955;-67
2022/02/12 08:43:04;;;;;;;1.30;1.30;;;;;;;3.21;64.33;102118.13;103421;1277;108918;-65
2022/02/12 08:45:32;;;;;;;1.40;1.40;;;;;;;3.24;64.31;102117.70;103396;1276;138836;-66
2022/02/12 08:47:59;;;;;;;1.20;1.20;;;;;;;3.29;63.75;102126.64;103500;1277;95160;-65
2022/02/12 08:50:27;;;;;;;1.10;1.10;;;;;;;3.33;63.72;102129.77;103532;1277;109746;-65
2022/02/12 08:52:55;;;;;;;1.10;1.10;;;;;;;3.35;63.67;102131.23;103421;1276;137874;-65
2022/02/12 08:55:24;;;;;;;1.20;1.20;;;;;;;3.37;63.12;102130.41;103492;1278;108391;-65
2022/02/12 08:57:52;;;;;;;1.20;1.20;;;;;;;3.41;62.85;102129.12;103410;1277;139040;-66
2022/02/12 09:00:20;;;;;;;1.20;1.20;;;;;;;3.47;62.63;102130.89;103541;1276;95779;-67
2022/02/12 09:03:08;;;;;;;1.10;1.10;;;;;;;3.55;62.23;102133.94;103404;1276;138894;-63
2022/02/12 09:05:36;;;;;;;1.20;1.20;;;;;;;3.67;62.20;102136.58;103451;1276;97528;-65
2022/02/12 09:08:04;;;;;;;1.30;1.30;;;;;;;3.71;61.64;102135.48;103528;1277;109559;-65
2022/02/12 09:10:32;;;;;;;1.20;1.20;;;;;;;3.88;61.86;102142.98;103366;1277;137978;-67
2022/02/12 09:13:00;;;;;;;1.10;1.10;;;;;;;4.08;61.56;102152.91;103462;1277;95516;-66
2022/02/12 09:15:28;;;;;;;1.00;1.00;;;;;;;4.34;60.39;102151.88;103407;1277;138613;-64
2022/02/12 09:17:56;;;;;;;1.10;1.10;;;;;;;4.56;59.75;102152.81;103473;1276;98558;-66
2022/02/12 09:20:24;;;;;;;1.10;1.10;;;;;;;4.67;59.25;102150.64;103556;1276;109059;-66
2022/02/12 09:22:52;;;;;;;1.20;1.20;;;;;;;4.67;59.25;102152.21;103374;1276;138400;-66
2022/02/12 09:25:20;;;;;;;1.10;1.10;;;;;;;4.70;58.62;102156.16;103467;1278;96566;-67
2022/02/12 09:27:48;;;;;;;1.20;1.20;;;;;;;4.68;58.70;102159.28;103254;1276;138370;-71
2022/02/12 09:30:16;;;;;;;1.10;1.10;;;;;;;4.99;57.81;102165.54;104220;1277;97912;-66
2022/02/12 09:32:43;;;;;;;1.40;1.40;;;;;;;5.76;56.41;102166.98;103363;1276;109774;-66
2022/02/12 09:35:12;;;;;;;1.50;1.50;;;;;;;7.32;54.38;102165.80;103339;1277;137978;-65
2022/02/12 09:37:42;;;;;;;1.00;1.00;;;;;;;10.08;48.21;102160.41;103499;1277;95760;-65
2022/02/12 09:40:10;;;;;;;0.70;0.70;;;;;;;12.41;44.47;102151.77;103317;1276;139777;-66
2022/02/12 09:42:38;;;;;;;0.50;0.40;;;;;;;13.94;41.17;102146.92;103477;1276;98605;-66
2022/02/12 09:45:07;;;;;;;0.40;0.30;;;;;;;14.12;39.03;102147.77;103412;1276;138380;-66
2022/02/12 09:47:49;;;;;;;0.50;0.50;;;;;;;13.67;40.42;102155.10;103474;1276;95339;-67
2022/02/12 09:50:19;;;;;;;0.50;0.50;;;;;;;15.14;37.54;102158.58;103514;1276;95141;-66
2022/02/12 09:52:52;;;;;;;0.40;0.30;;;;;;;16.91;34.58;102163.59;103380;1276;138298;-65
2022/02/12 09:55:23;;;;;;;0.40;0.20;;;;;;;18.26;32.65;102168.98;103747;1276;99407;-65
2022/02/12 09:57:51;;;;;;;0.40;0.20;;;;;;;18.78;30.79;102169.71;103558;1276;140660;-66
2022/02/12 10:00:19;;;;;;;0.40;0.20;;;;;;;18.09;30.60;102180.42;103518;1276;95538;-65
2022/02/12 10:02:47;;;;;;;0.40;0.20;;;;;;;17.89;29.90;102181.36;103470;1275;95656;-66
2022/02/12 10:05:26;;;;;;;0.40;0.20;;;;;;;17.34;29.65;102178.88;103340;1276;138232;-66
2022/02/12 10:08:00;;;;;;;0.40;0.20;;;;;;;17.16;29.94;102175.92;103552;1276;99411;-65
2022/02/12 10:10:30;;;;;;;0.40;0.20;;;;;;;16.44;31.43;102184.05;103433;1276;138126;-66
2022/02/12 10:13:21;;;;;;;0.40;0.20;;;;;;;15.69;32.43;102186.10;103448;1276;95722;-66
2022/02/12 10:15:56;;;;;;;0.40;0.30;;;;;;;14.37;33.97;102193.89;103308;1276;138201;-66
2022/02/12 10:18:25;;;;;;;0.40;0.30;;;;;;;13.12;34.68;102198.94;103423;1277;109842;-69
2022/02/12 10:20:59;;;;;;;0.40;0.30;;;;;;;11.95;36.60;102202.40;103333;1276;139032;-65
2022/02/12 10:23:29;;;;;;;0.40;0.30;;;;;;;11.05;38.42;102200.71;103564;1277;108757;-65
2022/02/12 10:26:03;;;;;;;0.50;0.50;;;;;;;10.50;40.57;102202.91;103365;1276;95785;-66
2022/02/12 10:28:33;;;;;;;0.50;0.50;;;;;;;10.03;41.65;102209.44;103211;1276;139576;-65
2022/02/12 10:31:02;;;;;;;0.50;0.50;;;;;;;9.70;42.51;102207.66;103997;1276;108835;-65
2022/02/12 10:33:42;;;;;;;0.60;0.60;;;;;;;9.25;42.19;102208.03;103310;1276;138533;-66
2022/02/12 10:36:15;;;;;;;0.70;0.70;;;;;;;8.54;42.33;102211.41;103425;1276;107809;-66
2022/02/12 10:38:50;;;;;;;0.60;0.60;;;;;;;8.95;42.63;102205.46;103650;1277;95221;-65
2022/02/12 10:41:20;;;;;;;0.60;0.60;;;;;;;9.36;41.49;102204.92;103736;1276;137727;-65
2022/02/12 10:43:53;;;;;;;0.60;0.60;;;;;;;9.07;42.71;102201.68;103601;1276;109305;-65
2022/02/12 10:46:22;;;;;;;0.50;0.50;;;;;;;9.66;42.04;102202.66;103716;1276;138066;-65
2022/02/12 10:48:51;;;;;;;0.60;0.60;;;;;;;9.14;42.01;102200.31;103953;1276;108956;-65
2022/02/12 10:51:19;;;;;;;0.60;0.60;;;;;;;8.57;43.15;102205.59;103505;1276;138105;-65
2022/02/12 10:53:59;;;;;;;0.60;0.60;;;;;;;8.00;44.33;102202.59;103550;1276;95263;-66
2022/02/12 10:56:46;;;;;;;0.70;0.70;;;;;;;7.69;46.28;102197.39;103503;1276;110380;-66
2022/02/12 10:59:22;;;;;;;0.70;0.70;;;;;;;7.39;46.27;102192.67;103427;1276;138178;-65
2022/02/12 11:01:51;;;;;;;0.80;0.80;;;;;;;7.24;47.20;102189.09;103496;1276;108781;-65
2022/02/12 11:04:20;;;;;;;0.80;0.80;;;;;;;6.97;46.92;102186.68;103526;1276;137950;-66
2022/02/12 11:06:48;;;;;;;0.80;0.80;;;;;;;6.73;46.95;102189.97;103484;1275;95230;-65
2022/02/12 11:09:20;;;;;;;0.80;0.80;;;;;;;6.49;47.12;102184.58;103519;1276;138194;-65
2022/02/12 11:11:48;;;;;;;1.00;1.00;;;;;;;6.33;47.83;102183.39;103591;1276;99633;-66
2022/02/12 11:14:21;;;;;;;0.90;0.90;;;;;;;6.19;47.93;102185.20;103494;1276;108854;-68
2022/02/12 11:16:49;;;;;;;0.90;0.90;;;;;;;6.03;47.45;102184.00;103499;1276;137947;-65
2022/02/12 11:19:18;;;;;;;1.00;1.00;;;;;;;5.87;47.55;102183.81;103442;1277;95235;-66
2022/02/12 11:21:46;;;;;;;0.90;0.90;;;;;;;5.71;47.36;102185.38;103473;1276;138274;-65
2022/02/12 11:24:14;;;;;;;1.00;1.00;;;;;;;5.60;47.79;102180.73;103505;1276;98642;-66
2022/02/12 11:26:44;;;;;;;1.00;1.00;;;;;;;5.49;47.80;102187.53;103391;1277;108490;-66
2022/02/12 11:29:31;;;;;;;1.00;1.00;;;;;;;5.47;48.69;102182.91;103434;1277;138360;-65
2022/02/12 11:32:11;;;;;;;1.00;1.00;;;;;;;5.42;48.27;102182.77;103495;1276;95533;-66
2022/02/12 11:35:09;;;;;;;1.00;1.00;;;;;;;5.29;49.05;102180.36;103441;1276;137850;-66
2022/02/12 11:37:41;;;;;;;1.10;1.10;;;;;;;5.21;49.76;102182.98;103484;1276;99580;-64